AirNav   Duncan Aviation - Near you to keep you flying
 
 969 users online  

CL35 Warner Springs Gliderport
Warner Springs, California, USA

GOING TO WARNER SPRINGS?


FAA INFORMATION EFFECTIVE 03 NOVEMBER 2022

Location

FAA Identifier: CL35
Lat/Long: 33-17-04.2100N 116-40-10.7650W
33-17.070167N 116-40.179417W
33.2845028,-116.6696569
(estimated)
Elevation: 2880 ft. / 878 m (estimated)
Variation: 13E (1985)
From city: 2 miles E of WARNER SPRINGS, CA
Time zone: UTC -8 (UTC -7 during Daylight Saving Time)
Zip code: 92086

Gliderport Operations

Gliderport use: Private use. Permission required prior to landing
Activation date: 10/1984
Control tower: no
ARTCC: LOS ANGELES CENTER
FSS: SAN DIEGO FLIGHT SERVICE STATION
Attendance: 0900-1700
Wind indicator: yes
Segmented circle: yes
Landing fee: yes

Gliderport Communications

UNICOM: 122.8
WX AWOS-3P at L08 (18 nm E): 126.575 (760-767-3308)
WX ASOS at RNM (19 nm SW): PHONE 760-789-7699

Nearby radio navigation aids

VOR radial/distance  VOR name  Freq  Var
JLIr319/9.6JULIAN VORTAC114.0015E
TRMr218/32.8THERMAL VORTAC116.2013E
PSPr186/37.1PALM SPRINGS VORTAC115.5013E
OCNr071/37.6OCEANSIDE VORTAC115.3015E
HDFr125/(39.2)HOMELAND VOR112.0514E

Gliderport Services

Runway Information

Runway 8/26

Dimensions: 3500 x 70 ft. / 1067 x 21 m
Surface: asphalt
RUNWAY 8  RUNWAY 26
Latitude: 33-17.060333N33-17.080000N
Longitude: 116-40.522667W116-39.836167W
Elevation: 2873.0 ft.2914.0 ft.
Traffic pattern: leftleft
Obstructions: none200 ft. hill, 5200 ft. from runway

Gliderport Ownership and Management from official FAA records

Ownership: Privately-owned
Owner: WARNER SPRINGS RANCH RESORT, LLC
31930 HWY 79
WARNER SPRINGS, CA 92086
Phone 760-782-4200
SKY SAILING 31930 HWY 79.
Manager: BRET WILLAT
SKY SAILING INC., 31930 HWY 79
WARNER SPRINGS, CA 92086
Phone 760-782-0404
LEASEE.

Gliderport Operational Statistics

Aircraft based on the field: 80
Single engine airplanes: 10
Gliders airplanes: 70
    

Additional Remarks

FOR CD CTC LOS ANGELES ARTCC AT 661-575-2079.

Instrument Procedures

There are no published instrument procedures at CL35.

Some nearby airports with instrument procedures:

L08 - Borrego Valley Airport (18 nm E)
KRNM - Ramona Airport (19 nm SW)
F70 - French Valley Airport (29 nm NW)
L18 - Fallbrook Community Airpark (29 nm W)
KSEE - Gillespie Field Airport (31 nm SW)
 
Loc | Ops | Rwys | IFR | FBO | Links
Com | Nav | Svcs | Stats | Notes
Area around CL35 (Warner Springs Gliderport)
 
Road maps at: MapQuest Bing Google
 
Aerial photo
WARNING: Photo may not be current or correct
Aerial photo of CL35 (Warner Springs Gliderport)
Photo by Steve Lupinacci
Photo taken 27-May-2008

Do you have a better or more recent aerial photo of Warner Springs Gliderport that you would like to share? If so, please send us your photo.

 
Sectional chart

 
Airport distance calculator
Flying to Warner Springs Gliderport? Find the distance to fly.

From to CL35

Sunrise and sunset
Times for 26-Nov-2022
 Local
(UTC-8)
 Zulu
(UTC)
Morning civil twilight06:0214:02
Sunrise06:2914:29
Sunset16:3900:39
Evening civil twilight17:0601:06

Current date and time
Zulu (UTC)  27-Nov-2022 02:40:34
Local (UTC-8)  26-Nov-2022 18:40:34
 
METAR
KL08 
18nm E 
270215Z AUTO 33005KT 10SM SCT018 BKN034 BKN043 12/M07 A2999 RMK AO2
KRNM 
20nm SW 
270153Z 00000KT 10SM CLR 10/03 A3004 RMK AO2 SLP174 T01000028
KF70 
29nm NW 
270215Z AUTO 12003KT 10SM CLR 12/M02 A3004 RMK AO2
KL18 
29nm W 
270215Z AUTO 00000KT 10SM CLR 14/08 A3005 RMK AO2
KSEE 
32nm SW 
270147Z 00000KT 10SM SKC 15/07 A3005
KCRQ 
32nm W 
270153Z 17003KT 10SM CLR 14/11 A3002 RMK AO2 SLP166 T01440111
KHMT 
32nm NW 
270215Z AUTO 00000KT 10SM CLR 14/M04 A3004 RMK AO2 T01361036
KTRM 
33nm NE 
270152Z AUTO 00000KT 10SM CLR 11/M01 A2999 RMK AO2 SLP153 T01111011
KPSP 
33nm N 
270153Z 00000KT 10SM CLR 17/M03 A3002 RMK AO2 SLP165 T01721033
KNFG 
33nm W 
270152Z AUTO 00000KT 10SM CLR 12/08 A3004 RMK AO2 SLP171 T01170083 $
TAF
KCRQ 
32nm W 
261725Z 2618/2718 08004KT P6SM SKC FM261900 24007KT P6SM SKC FM270200 VRB03KT P6SM SKC FM270500 10003KT P6SM SKC
KTRM 
33nm NE 
261725Z 2618/2718 14007KT P6SM SKC FM270300 34005KT P6SM SKC
KPSP 
33nm N 
261725Z 2618/2718 33007KT P6SM SKC FM261900 13006KT P6SM SKC FM270300 32004KT P6SM SKC
KNFG 
33nm W 
2615/2715 VRB05KT 9999 SKC QNH3005INS BECMG 2620/2622 21008KT 9999 FEW250 QNH3003INS FM270030 VRB05KT 9999 FEW250 QNH3002INS LAST NO AMDS AFT 2615 NEXT 2715 T18/2621Z T07/2714Z
KNKX 
34nm SW 
2615/2715 VRB06KT 9999 SKC QNH3005INS BECMG 2620/2622 25008KT 9999 FEW250 QNH3003INS FM270030 VRB05KT 9999 FEW250 QNH3005INS BECMG 2704/2706 09006KT 9999 FEW250 QNH3003INS LAST NO AMDS AFT 2615 NEXT 2715 T21/2621Z T06/2713Z
NOTAMs
Click for the latest NOTAMs
NOTAMs are issued by the DoD/FAA and will open in a separate window not controlled by AirNav.

 

 
 

Would you like to see your business listed on this page?

 If your business provides an interesting product or service to pilots, flight crews, aircraft, or users of the Warner Springs Gliderport, you should consider listing it here.  To start the listing process, click on the button below
 
Add a business
 

Other Pages about Warner Springs Gliderport

www.agcsc.org/warner_springs_info.html
 
Update a link
 
Copyright © AirNav, LLC. All rights reserved. Privacy Policy  Contact